createdAt,value
2023-03-23T15:58:43.112Z,99553.66
2023-03-23T16:01:48.516Z,99560.53
2023-03-23T16:04:51.518Z,99565.66
2023-03-23T16:07:54.146Z,99570.75
2023-03-23T16:10:56.578Z,99587.81
2023-03-23T16:13:59.611Z,99601.50
2023-03-23T16:17:03.979Z,99608.09
2023-03-23T16:20:13.537Z,99615.41
2023-03-23T16:23:16.467Z,99620.78
2023-03-23T16:26:19.369Z,99630.06
2023-03-23T16:29:37.060Z,99632.31
2023-03-23T16:32:46.689Z,99636.13
2023-03-23T16:35:49.467Z,99625.84
2023-03-23T16:38:53.658Z,99628.31
2023-03-23T16:41:57.333Z,99616.78
2023-03-23T16:44:59.909Z,99607.91
2023-03-23T16:48:03.947Z,99613.06
2023-03-23T16:51:07.278Z,99610.84
2023-03-23T16:54:09.798Z,99618.66
2023-03-23T16:57:12.419Z,99631.88
2023-03-23T17:00:20.072Z,99622.16
2023-03-23T17:03:24.098Z,99634.63
2023-03-23T17:06:26.739Z,99621.97
2023-03-23T17:09:29.435Z,99629.78
2023-03-23T17:12:31.939Z,99640.06
2023-03-23T17:15:36.683Z,99641.63
2023-03-23T17:18:40.490Z,99655.78
2023-03-23T17:21:43.543Z,99647.44
2023-03-23T17:24:47.595Z,99649.66
2023-03-23T17:27:50.041Z,99643.13
2023-03-23T17:30:53.414Z,99618.44
2023-03-23T17:33:57.806Z,99625.34
2023-03-23T17:37:00.325Z,99620.25
2023-03-23T17:40:03.257Z,99622.91
2023-03-23T17:43:06.827Z,99637.28
2023-03-23T17:46:11.177Z,99636.34
2023-03-23T17:49:15.025Z,99645.00
2023-03-23T17:52:17.518Z,99641.41
2023-03-23T17:55:20.216Z,99638.97
2023-03-23T17:58:23.029Z,99630.41
2023-03-23T18:01:26.042Z,99628.41
